| time (UTC) | temp F | wind direction | speed knots | gust knots | rain 1hr in | rain 24hr in | rain mn in | humidity % | barometer mb |
| 20260506112905 | 48 | 63 | 1.7 | 1.7 | 0.00 | 0.20 | 0.20 | 99 | 1014.3 |
| 20260506111905 | 48 | 63 | 1.7 | 1.7 | 0.00 | 0.20 | 0.20 | 99 | 1014.5 |
| 20260506110905 | 48 | 77 | 1.7 | 1.7 | 0.00 | 0.20 | 0.20 | 99 | 1014.8 |
| 20260506105905 | 48 | 79 | 0.9 | 1.7 | 0.00 | 0.20 | 0.20 | 99 | 1014.8 |
| 20260506104905 | 48 | 74 | 1.7 | 1.7 | 0.00 | 0.20 | 0.20 | 99 | 1015.0 |
| 20260506103905 | 48 | 68 | 1.7 | 1.7 | 0.00 | 0.20 | 0.20 | 98 | 1014.9 |
| 20260506101905 | 48 | 76 | 0.9 | 1.7 | 0.00 | 0.20 | 0.20 | 99 | 1015.2 |
| 20260506100905 | 48 | 79 | 0.9 | 1.7 | 0.00 | 0.20 | 0.20 | 99 | 1015.2 |
| 20260506095905 | 48 | 76 | 0.9 | 1.7 | 0.00 | 0.20 | 0.20 | 99 | 1015.2 |
| 20260506094905 | 49 | 71 | 1.7 | 1.7 | 0.00 | 0.20 | 0.20 | 99 | 1015.3 |
| 20260506093910 | 49 | 69 | 1.7 | 1.7 | 0.00 | 0.20 | 0.20 | 99 | 1015.3 |
| 20260506092906 | 49 | 78 | 1.7 | 1.7 | 0.00 | 0.20 | 0.20 | 99 | 1015.4 |
| 20260506091905 | 49 | 77 | 1.7 | 1.7 | 0.00 | 0.20 | 0.20 | 99 | 1015.5 |
| 20260506090905 | 49 | 73 | 1.7 | 1.7 | 0.00 | 0.20 | 0.20 | 99 | 1015.2 |
| 20260506085911 | 49 | 78 | 1.7 | 2.6 | 0.00 | 0.20 | 0.20 | 99 | 1015.4 |
| 20260506084905 | 49 | 83 | 1.7 | 1.7 | 0.00 | 0.20 | 0.20 | 99 | 1015.7 |
| 20260506084213 | 49 | 85 | 1.7 | 0.0 | 0.00 | 0.20 | 0.20 | 99 | 1015.7 |
| 20260506084205 | 49 | 85 | 1.7 | 1.7 | 0.00 | 0.20 | 0.20 | 99 | 1015.7 |
| 20260506081912 | 49 | 72 | 1.7 | 1.7 | 0.00 | 0.20 | 0.20 | 99 | 1016.0 |
| 20260506080910 | 50 | 81 | 1.7 | 1.7 | 0.00 | 0.20 | 0.20 | 99 | 1016.0 |
| 20260506072905 | 50 | 78 | 1.7 | 1.7 | 0.01 | 0.20 | 0.20 | 99 | 1016.4 |
| 20260506071906 | 51 | 66 | 1.7 | 1.7 | 0.01 | 0.20 | 0.20 | 99 | 1016.6 |
| 20260506070905 | 51 | 61 | 1.7 | 1.7 | 0.02 | 0.20 | 0.20 | 99 | 1016.5 |
| 20260506061905 | 51 | 72 | 1.7 | 1.7 | 0.07 | 0.19 | 0.19 | 98 | 1016.3 |
| 20260506060828 | 51 | 89 | 0.9 | 0.0 | 0.07 | 0.18 | 0.18 | 98 | 1016.2 |
| 20260506050905 | 52 | 79 | 0.9 | 1.7 | 0.03 | 0.11 | 0.11 | 97 | 1016.2 |
| 20260506044904 | 52 | 69 | 0.9 | 2.6 | 0.05 | 0.10 | 0.10 | 96 | 1016.3 |
| 20260506042905 | 52 | 52 | 1.7 | 2.6 | 0.06 | 0.09 | 0.09 | 95 | 1016.1 |
| 20260506041905 | 52 | 71 | 1.7 | 2.6 | 0.06 | 0.09 | 0.09 | 95 | 1016.2 |
| 20260506040905 | 52 | 64 | 1.7 | 2.6 | 0.06 | 0.08 | 0.08 | 95 | 1016.2 |
| 20260506034910 | 53 | 61 | 1.7 | 1.7 | 0.03 | 0.05 | 0.05 | 92 | 1016.4 |
| 20260506033905 | 53 | 60 | 1.7 | 1.7 | 0.02 | 0.04 | 0.04 | 90 | 1016.2 |
| 20260506032905 | 53 | 66 | 1.7 | 1.7 | 0.02 | 0.03 | 0.03 | 93 | 1016.3 |
| 20260506030905 | 53 | 63 | 1.7 | 2.6 | 0.02 | 0.02 | 0.02 | 96 | 1016.2 |
| 20260506025905 | 53 | 107 | 1.7 | 1.7 | 0.02 | 0.02 | 0.02 | 96 | 1016.3 |
| 20260506023906 | 53 | 63 | 1.7 | 2.6 | 0.02 | 0.02 | 0.02 | 95 | 1016.1 |
| 20260506021904 | 53 | 82 | 0.9 | 1.7 | 0.01 | 0.01 | 0.01 | 93 | 1015.8 |
| 20260506020905 | 53 | 80 | 0.9 | 1.7 | 0.01 | 0.01 | 0.01 | 92 | 1015.7 |
| 20260506015904 | 53 | 75 | 0.9 | 2.6 | 0.00 | 0.00 | 0.00 | 90 | 1015.8 |
| 20260506014905 | 53 | 67 | 1.7 | 2.6 | 0.00 | 0.00 | 0.00 | 88 | 1015.5 |
| 20260506012905 | 54 | 65 | 1.7 | 2.6 | 0.00 | 0.00 | 0.00 | 86 | 1015.5 |
| 20260506011904 | 54 | 46 | 1.7 | 1.7 | 0.00 | 0.00 | 0.00 | 84 | 1015.2 |
| 20260506010905 | 54 | 58 | 1.7 | 2.6 | 0.00 | 0.00 | 0.00 | 84 | 1015.5 |
| 20260506005904 | 55 | 58 | 1.7 | 2.6 | 0.00 | 0.00 | 0.00 | 82 | 1015.4 |
| 20260506004904 | 55 | 64 | 0.9 | 2.6 | 0.00 | 0.00 | 0.00 | 82 | 1015.5 |
| 20260506003904 | 55 | 70 | 1.7 | 2.6 | 0.00 | 0.00 | 0.00 | 83 | 1015.6 |
| 20260506002904 | 54 | 55 | 1.7 | 1.7 | 0.00 | 0.00 | 0.00 | 83 | 1015.7 |
| 20260506001905 | 53 | 80 | 1.7 | 2.6 | 0.00 | 0.00 | 0.00 | 85 | 1015.9 |
| 20260506000905 | 53 | 58 | 1.7 | 2.6 | 0.00 | 0.00 | 0.00 | 86 | 1015.8 |
| 20260505235905 | 52 | 101 | 0.9 | 2.6 | 0.00 | 0.00 | 0.00 | 99 | 1015.7 |
| 20260505234905 | 52 | 86 | 1.7 | 2.6 | 0.00 | 0.00 | 0.00 | 99 | 1015.9 |
| 20260505233904 | 51 | 84 | 1.7 | 1.7 | 0.00 | 0.00 | 0.00 | 98 | 1016.0 |
| 20260505232905 | 50 | 59 | 1.7 | 1.7 | 0.00 | 0.00 | 0.00 | 98 | 1015.9 |
| 20260505231905 | 48 | 83 | 0.9 | 2.6 | 0.00 | 0.00 | 0.00 | 99 | 1016.1 |
| 20260505225905 | 47 | 64 | 0.9 | 2.6 | 0.00 | 0.00 | 0.00 | 99 | 1015.9 |
| 20260505224905 | 46 | 81 | 1.7 | 2.6 | 0.00 | 0.00 | 0.00 | 99 | 1016.0 |
| 20260505223904 | 44 | 64 | 1.7 | 2.6 | 0.00 | 0.00 | 0.00 | 99 | 1015.9 |
| 20260505222905 | 44 | 79 | 1.7 | 1.7 | 0.00 | 0.00 | 0.00 | 99 | 1016.1 |
| 20260505221905 | 44 | 84 | 0.9 | 1.7 | 0.00 | 0.00 | 0.00 | 99 | 1016.2 |
| 20260505215906 | 42 | 56 | 1.7 | 2.6 | 0.00 | 0.00 | 0.00 | 99 | 1016.4 |
| 20260505214905 | 42 | 77 | 1.7 | 2.6 | 0.00 | 0.00 | 0.00 | 98 | 1016.3 |
| 20260505213905 | 40 | 74 | 1.7 | 1.7 | 0.00 | 0.00 | 0.00 | 99 | 1016.5 |
| 20260505212905 | 40 | 85 | 1.7 | 1.7 | 0.00 | 0.00 | 0.00 | 99 | 1016.3 |
| 20260505211905 | 39 | 52 | 1.7 | 2.6 | 0.00 | 0.00 | 0.00 | 99 | 1016.6 |
| 20260505210905 | 37 | 66 | 1.7 | 2.6 | 0.00 | 0.00 | 0.00 | 99 | 1016.6 |
| 20260505205905 | 38 | 76 | 1.7 | 1.7 | 0.00 | 0.00 | 0.00 | 99 | 1016.6 |
| 20260505204905 | 37 | 74 | 1.7 | 2.6 | 0.00 | 0.00 | 0.00 | 99 | 1016.4 |
| 20260505202906 | 37 | 67 | 1.7 | 4.3 | 0.00 | 0.00 | 0.00 | 99 | 1016.1 |
| 20260505201904 | 37 | 67 | 1.7 | 2.6 | 0.00 | 0.00 | 0.00 | 99 | 1016.2 |
| 20260505195905 | 36 | 72 | 1.7 | 2.6 | 0.00 | 0.00 | 0.00 | 99 | 1016.1 |
| 20260505194905 | 36 | 79 | 1.7 | 2.6 | 0.00 | 0.00 | 0.00 | 99 | 1016.0 |
| 20260505193905 | 35 | 87 | 1.7 | 2.6 | 0.00 | 0.00 | 0.00 | 99 | 1016.2 |
| 20260505192905 | 34 | 69 | 1.7 | 2.6 | 0.00 | 0.00 | 0.00 | 99 | 1015.7 |
| 20260505191910 | 34 | 75 | 1.7 | 2.6 | 0.00 | 0.00 | 0.00 | 99 | 1016.1 |
| 20260505185905 | 34 | 59 | 1.7 | 2.6 | 0.00 | 0.00 | 0.00 | 99 | 1015.9 |
| 20260505183907 | 34 | 81 | 1.7 | 2.6 | 0.00 | 0.00 | 0.00 | 99 | 1015.8 |
| 20260505182911 | 34 | 70 | 1.7 | 4.3 | 0.00 | 0.00 | 0.00 | 99 | 1015.9 |
| 20260505181904 | 34 | 58 | 2.6 | 2.6 | 0.00 | 0.00 | 0.00 | 99 | 1016.0 |
| 20260505180904 | 34 | 78 | 1.7 | 2.6 | 0.00 | 0.00 | 0.00 | 99 | 1015.9 |
| 20260505175904 | 34 | 69 | 1.7 | 2.6 | 0.00 | 0.00 | 0.00 | 99 | 1016.1 |
| 20260505174905 | 35 | 66 | 1.7 | 2.6 | 0.00 | 0.00 | 0.00 | 98 | 1016.2 |
| 20260505172905 | 35 | 92 | 0.9 | 2.6 | 0.00 | 0.00 | 0.00 | 99 | 1016.2 |
| 20260505171906 | 35 | 62 | 1.7 | 2.6 | 0.00 | 0.00 | 0.00 | 98 | 1016.1 |
| 20260505170905 | 36 | 76 | 1.7 | 2.6 | 0.00 | 0.00 | 0.00 | 98 | 1016.0 |
| 20260505165905 | 36 | 81 | 1.7 | 4.3 | 0.00 | 0.00 | 0.00 | 98 | 1016.2 |
| 20260505164905 | 37 | 65 | 1.7 | 2.6 | 0.00 | 0.00 | 0.00 | 98 | 1016.4 |
| 20260505163907 | 37 | 71 | 1.7 | 2.6 | 0.00 | 0.00 | 0.00 | 98 | 1016.5 |
| 20260505161905 | 38 | 78 | 1.7 | 2.6 | 0.00 | 0.00 | 0.00 | 99 | 1016.7 |
| 20260505152905 | 40 | 79 | 1.7 | 1.7 | 0.00 | 0.00 | 0.00 | 99 | 1017.3 |
| 20260505151905 | 40 | 65 | 1.7 | 2.6 | 0.00 | 0.00 | 0.00 | 99 | 1017.2 |
| 20260505150905 | 40 | 60 | 1.7 | 2.6 | 0.00 | 0.00 | 0.00 | 99 | 1017.5 |
| 20260505124905 | 42 | 88 | 1.7 | 1.7 | 0.00 | 0.00 | 0.00 | 99 | 1018.7 |
| 20260505123905 | 42 | 64 | 1.7 | 1.7 | 0.00 | 0.00 | 0.00 | 99 | 1018.8 |
| 20260505121905 | 43 | 99 | 0.0 | 1.7 | 0.00 | 0.00 | 0.00 | 99 | 1018.9 |
| 20260505120905 | 43 | 76 | 1.7 | 1.7 | 0.00 | 0.00 | 0.00 | 99 | 1018.9 |
| 20260505115905 | 43 | 80 | 1.7 | 1.7 | 0.00 | 0.00 | 0.00 | 99 | 1019.0 |
| 20260505114905 | 43 | 77 | 1.7 | 1.7 | 0.00 | 0.00 | 0.00 | 99 | 1019.0 |
| 20260505113904 | 43 | 74 | 0.9 | 2.6 | 0.00 | 0.00 | 0.00 | 99 | 1019.4 |